createdAt,value
2023-02-13T00:00:40.644Z,97.31
2023-02-13T00:04:47.808Z,98.07
2023-02-13T00:08:51.894Z,97.50
2023-02-13T00:12:54.583Z,96.96
2023-02-13T00:16:57.273Z,97.38
2023-02-13T00:21:02.716Z,96.85
2023-02-13T00:25:07.925Z,96.87
2023-02-13T00:29:10.620Z,95.86
2023-02-13T00:33:13.832Z,96.03
2023-02-13T00:37:17.150Z,97.13
2023-02-13T00:41:22.757Z,96.75
2023-02-13T00:45:25.496Z,97.38
2023-02-13T00:49:28.232Z,97.54
2023-02-13T00:53:31.177Z,98.18
2023-02-13T00:57:35.308Z,97.33
2023-02-13T01:01:38.769Z,97.80
2023-02-13T01:05:41.751Z,97.81
2023-02-13T01:09:44.562Z,97.36
2023-02-13T01:13:48.607Z,97.50
2023-02-13T01:17:51.369Z,98.11
2023-02-13T01:21:54.492Z,97.70
2023-02-13T01:25:57.138Z,97.84
2023-02-13T01:30:02.743Z,97.96
2023-02-13T01:34:05.410Z,98.01
2023-02-13T01:38:08.062Z,97.03
2023-02-13T01:42:16.390Z,98.30
2023-02-13T01:46:25.135Z,96.75
2023-02-13T01:50:32.666Z,97.56
2023-02-13T01:54:36.077Z,97.98
2023-02-13T01:58:41.346Z,97.99
2023-02-13T02:02:48.729Z,96.97
2023-02-13T02:06:54.023Z,97.85
2023-02-13T02:10:58.245Z,97.73
2023-02-13T02:15:02.745Z,98.34
2023-02-13T02:19:21.069Z,97.98
2023-02-13T02:23:52.275Z,97.11
2023-02-13T02:28:11.927Z,97.19
2023-02-13T02:32:44.309Z,96.93
2023-02-13T02:37:10.001Z,97.42
2023-02-13T02:41:43.665Z,97.15
2023-02-13T02:45:58.997Z,97.17
2023-02-13T02:50:18.032Z,96.16
2023-02-13T02:54:44.706Z,96.51
2023-02-13T02:59:09.557Z,96.71
2023-02-13T03:03:35.965Z,96.43
2023-02-13T03:07:41.909Z,96.44
2023-02-13T03:12:04.770Z,97.10
2023-02-13T03:16:30.577Z,97.73
2023-02-13T03:21:02.226Z,96.94
2023-02-13T03:25:15.201Z,97.79
2023-02-13T03:29:45.111Z,97.09
2023-02-13T03:34:02.954Z,97.58
2023-02-13T03:38:16.345Z,97.61
2023-02-13T03:42:29.059Z,97.30
2023-02-13T03:46:42.668Z,97.54
2023-02-13T03:50:50.591Z,96.94
2023-02-13T03:55:16.056Z,96.78
2023-02-13T03:59:25.257Z,97.32
2023-02-13T04:03:33.136Z,97.77
2023-02-13T04:07:37.885Z,97.51
2023-02-13T04:11:46.602Z,98.05
2023-02-13T04:15:54.138Z,96.57
2023-02-13T04:19:58.333Z,97.07
2023-02-13T04:24:02.015Z,96.15
2023-02-13T04:28:06.753Z,96.22
2023-02-13T04:32:13.081Z,97.66
2023-02-13T04:36:17.133Z,97.51
2023-02-13T04:40:34.754Z,97.42
2023-02-13T04:44:39.210Z,97.85
2023-02-13T04:48:47.374Z,98.08
2023-02-13T04:52:56.054Z,96.88
2023-02-13T04:57:00.095Z,97.18
2023-02-13T05:01:04.130Z,97.25
2023-02-13T05:05:10.520Z,97.75
2023-02-13T05:09:20.212Z,97.54
2023-02-13T05:13:27.409Z,98.11
2023-02-13T05:17:42.843Z,97.26
2023-02-13T05:22:05.453Z,97.48
2023-02-13T05:26:09.377Z,97.53
2023-02-13T05:30:14.535Z,97.37
2023-02-13T05:34:18.828Z,97.50
2023-02-13T05:38:23.988Z,97.44
2023-02-13T05:42:27.803Z,97.66
2023-02-13T05:46:31.814Z,96.84
2023-02-13T05:50:35.921Z,97.59
2023-02-13T05:54:43.345Z,97.57
2023-02-13T05:58:47.134Z,97.10
2023-02-13T06:02:50.930Z,97.13
2023-02-13T06:06:54.992Z,97.48
2023-02-13T06:11:00.667Z,96.73
2023-02-13T06:15:04.837Z,97.33
2023-02-13T06:19:08.679Z,96.51
2023-02-13T06:23:12.716Z,97.17
2023-02-13T06:27:17.890Z,96.84
2023-02-13T06:31:21.400Z,97.06
2023-02-13T06:35:25.290Z,97.33
2023-02-13T06:39:28.577Z,97.30
2023-02-13T06:43:33.226Z,97.64
2023-02-13T06:47:36.935Z,96.50
2023-02-13T06:51:40.233Z,96.47
2023-02-13T06:55:46.354Z,97.61
2023-02-13T06:59:51.771Z,96.57
2023-02-13T07:03:55.782Z,97.09
2023-02-13T07:08:01.011Z,96.08
2023-02-13T07:12:05.042Z,97.53
2023-02-13T07:16:09.855Z,97.36
2023-02-13T07:20:13.689Z,96.94
2023-02-13T07:24:16.944Z,96.75
2023-02-13T07:28:19.872Z,95.78
2023-02-13T07:32:24.758Z,97.29
2023-02-13T07:36:27.682Z,96.71
2023-02-13T07:40:32.636Z,96.07
2023-02-13T07:44:38.587Z,95.98
2023-02-13T07:48:43.695Z,96.36
2023-02-13T07:52:55.198Z,95.96
2023-02-13T07:57:00.197Z,96.22
2023-02-13T08:01:09.007Z,95.88
2023-02-13T08:05:14.995Z,94.00
2023-02-13T08:09:45.484Z,95.14
2023-02-13T08:13:52.820Z,96.37
2023-02-13T08:18:07.788Z,96.32
2023-02-13T08:22:14.893Z,96.62
2023-02-13T08:26:22.128Z,96.47
2023-02-13T08:30:27.314Z,96.87
2023-02-13T08:34:34.477Z,96.55
2023-02-13T08:42:46.986Z,96.55
2023-02-13T08:46:51.857Z,97.10
2023-02-13T08:50:59.278Z,98.15
2023-02-13T08:55:04.113Z,97.94
2023-02-13T08:59:09.322Z,97.45
2023-02-13T09:03:23.669Z,92.37
2023-02-13T09:07:32.525Z,94.43
2023-02-13T09:11:46.636Z,92.65
2023-02-13T09:15:51.716Z,92.56
2023-02-13T09:19:55.551Z,90.31
2023-02-13T09:23:59.740Z,87.02
2023-02-13T09:28:08.583Z,87.44
2023-02-13T09:32:12.522Z,82.74
2023-02-13T09:36:22.664Z,86.26
2023-02-13T09:40:30.195Z,83.21
2023-02-13T09:44:42.595Z,81.96
2023-02-13T09:48:51.382Z,84.56
2023-02-13T09:52:57.954Z,79.97
2023-02-13T09:57:03.125Z,79.64
2023-02-13T10:01:19.667Z,80.15
2023-02-13T10:05:39.141Z,78.22
2023-02-13T10:09:52.374Z,77.19
2023-02-13T10:14:06.732Z,77.18
2023-02-13T10:22:38.367Z,77.74
2023-02-13T10:26:46.799Z,75.17
2023-02-13T10:30:59.359Z,77.30
2023-02-13T10:35:11.631Z,75.00
2023-02-13T10:39:25.802Z,75.62
2023-02-13T10:43:31.289Z,75.07
2023-02-13T10:52:31.581Z,71.72
2023-02-13T10:56:42.464Z,71.26
2023-02-13T11:00:48.780Z,71.76
2023-02-13T11:04:54.659Z,71.87
2023-02-13T11:09:01.854Z,73.63
2023-02-13T11:13:20.977Z,70.40
2023-02-13T11:17:27.966Z,73.25
2023-02-13T11:21:47.153Z,71.03
2023-02-13T11:26:01.064Z,72.38
2023-02-13T11:30:09.104Z,70.28
2023-02-13T11:34:27.215Z,71.03
2023-02-13T11:38:33.060Z,70.53
2023-02-13T11:42:39.549Z,70.78
2023-02-13T11:46:48.999Z,70.67
2023-02-13T11:50:57.755Z,68.65
2023-02-13T11:55:08.648Z,66.92
2023-02-13T11:59:15.968Z,70.75
2023-02-13T12:03:31.200Z,67.52
2023-02-13T12:07:35.124Z,69.55
2023-02-13T12:11:42.306Z,69.04
2023-02-13T12:15:51.258Z,66.70
2023-02-13T12:19:55.680Z,66.03
2023-02-13T12:24:04.896Z,64.92
2023-02-13T12:28:17.171Z,66.48
2023-02-13T12:32:23.127Z,64.82
2023-02-13T12:36:32.358Z,66.13
2023-02-13T12:40:50.956Z,64.79
2023-02-13T12:45:14.780Z,64.84
2023-02-13T12:49:32.278Z,63.88
2023-02-13T12:53:55.881Z,64.66
2023-02-13T12:58:09.121Z,64.32
2023-02-13T13:02:29.676Z,63.66
2023-02-13T13:07:00.576Z,66.09
2023-02-13T13:11:14.821Z,67.09
2023-02-13T13:15:27.185Z,62.64
2023-02-13T13:19:37.143Z,63.90
2023-02-13T13:23:43.910Z,65.45
2023-02-13T13:27:49.485Z,64.02
2023-02-13T13:31:55.646Z,65.85
2023-02-13T13:36:04.884Z,63.93
2023-02-13T13:40:30.077Z,63.72
2023-02-13T13:44:49.750Z,65.02
2023-02-13T13:49:12.044Z,64.85
2023-02-13T13:53:16.188Z,63.14
2023-02-13T13:57:21.222Z,63.47
2023-02-13T14:01:27.106Z,60.89
2023-02-13T14:05:36.030Z,63.12
2023-02-13T14:09:40.752Z,61.71
2023-02-13T14:13:46.138Z,63.57
2023-02-13T14:17:54.853Z,64.27
2023-02-13T14:22:28.050Z,63.73
2023-02-13T14:26:36.141Z,61.59
2023-02-13T14:30:41.019Z,62.51
2023-02-13T14:34:44.495Z,65.01
2023-02-13T14:38:57.038Z,63.20
2023-02-13T14:43:02.337Z,64.53
2023-02-13T14:47:14.610Z,61.43
2023-02-13T14:51:28.855Z,62.96
2023-02-13T14:55:35.729Z,63.18
2023-02-13T14:59:40.784Z,62.80
2023-02-13T15:03:48.689Z,62.83
2023-02-13T15:08:01.305Z,62.74
2023-02-13T15:12:04.396Z,63.20
2023-02-13T15:16:09.671Z,63.20
2023-02-13T15:20:25.022Z,62.79
2023-02-13T15:24:28.930Z,64.07
2023-02-13T15:28:32.767Z,64.17
2023-02-13T15:32:37.439Z,65.17
2023-02-13T15:36:43.079Z,63.15
2023-02-13T15:40:46.008Z,64.51
2023-02-13T15:44:50.735Z,63.89
2023-02-13T15:48:54.737Z,66.59
2023-02-13T15:53:01.391Z,68.50
2023-02-13T15:57:06.928Z,71.94
2023-02-13T16:01:10.952Z,72.39
2023-02-13T16:05:29.404Z,74.36
2023-02-13T16:09:46.213Z,74.00
2023-02-13T16:14:08.040Z,75.08
2023-02-13T16:18:20.882Z,77.37
2023-02-13T16:22:30.720Z,77.33
2023-02-13T16:26:36.447Z,78.07
2023-02-13T16:30:42.623Z,78.39
2023-02-13T16:34:46.095Z,78.59
2023-02-13T16:38:50.102Z,78.14
2023-02-13T16:42:58.766Z,79.75
2023-02-13T16:47:03.756Z,80.08
2023-02-13T16:51:10.008Z,79.53
2023-02-13T16:55:17.073Z,80.90
2023-02-13T16:59:32.606Z,81.48
2023-02-13T17:03:36.322Z,82.44
2023-02-13T17:07:41.829Z,83.83
2023-02-13T17:11:51.130Z,84.80
2023-02-13T17:15:56.266Z,84.69
2023-02-13T17:19:59.666Z,83.78
2023-02-13T17:24:05.792Z,84.64
2023-02-13T17:28:23.998Z,85.71
2023-02-13T17:32:30.355Z,85.93
2023-02-13T17:36:38.858Z,85.35
2023-02-13T17:40:43.130Z,85.75
2023-02-13T17:44:47.208Z,85.85
2023-02-13T17:48:55.429Z,87.31
2023-02-13T17:53:00.117Z,88.14
2023-02-13T17:57:04.071Z,88.21
2023-02-13T18:01:11.924Z,86.35
2023-02-13T18:05:18.284Z,86.67
2023-02-13T18:09:22.396Z,87.37
2023-02-13T18:13:26.598Z,88.93
2023-02-13T18:17:29.910Z,87.72
2023-02-13T18:21:35.148Z,88.84
2023-02-13T18:25:42.254Z,87.77
2023-02-13T18:29:46.897Z,86.94
2023-02-13T18:33:50.816Z,87.43
2023-02-13T18:37:56.904Z,89.05
2023-02-13T18:42:01.016Z,87.11
2023-02-13T18:46:05.399Z,89.35
2023-02-13T18:50:12.985Z,89.81
2023-02-13T18:54:20.784Z,89.41
2023-02-13T18:58:24.408Z,90.30
2023-02-13T19:02:28.691Z,88.92
2023-02-13T19:06:33.375Z,89.73
2023-02-13T19:10:38.614Z,91.02
2023-02-13T19:14:45.148Z,88.27
2023-02-13T19:18:55.283Z,91.55
2023-02-13T19:22:59.697Z,90.77
2023-02-13T19:27:05.002Z,90.49
2023-02-13T19:31:11.288Z,90.44
2023-02-13T19:35:15.763Z,90.01
2023-02-13T19:39:25.555Z,90.61
2023-02-13T19:43:30.857Z,90.94
2023-02-13T19:47:38.246Z,90.46
2023-02-13T19:51:49.680Z,92.41
2023-02-13T19:56:05.262Z,90.53
2023-02-13T20:00:12.285Z,91.79
2023-02-13T20:04:16.392Z,90.25
2023-02-13T20:08:20.163Z,91.34
2023-02-13T20:12:23.973Z,91.40
2023-02-13T20:16:33.181Z,88.87
2023-02-13T20:20:37.078Z,90.82
2023-02-13T20:24:41.129Z,91.52
2023-02-13T20:28:46.419Z,89.63
2023-02-13T20:32:51.605Z,93.21
2023-02-13T20:36:55.426Z,91.87
2023-02-13T20:41:01.818Z,92.96
2023-02-13T20:45:07.651Z,91.26
2023-02-13T20:49:19.138Z,92.03
2023-02-13T20:53:26.078Z,93.46
2023-02-13T20:57:30.701Z,92.05
2023-02-13T21:01:37.887Z,91.72
2023-02-13T21:05:44.094Z,90.37
2023-02-13T21:09:48.213Z,91.99
2023-02-13T21:13:52.670Z,91.44
2023-02-13T21:18:04.556Z,91.82
2023-02-13T21:22:23.681Z,91.39
2023-02-13T21:26:27.976Z,90.16
2023-02-13T21:30:31.749Z,92.25
2023-02-13T21:34:35.736Z,90.19
2023-02-13T21:38:42.028Z,89.69
2023-02-13T21:42:49.966Z,90.76
2023-02-13T21:46:54.049Z,90.72
2023-02-13T21:50:58.203Z,90.54
2023-02-13T21:55:10.364Z,89.56
2023-02-13T21:59:19.677Z,90.15
2023-02-13T22:03:26.191Z,90.84
2023-02-13T22:07:35.143Z,91.11
2023-02-13T22:11:58.708Z,92.73
2023-02-13T22:16:04.020Z,90.54
2023-02-13T22:20:09.729Z,90.60
2023-02-13T22:24:14.577Z,91.66
2023-02-13T22:28:24.225Z,90.05
2023-02-13T22:32:43.623Z,89.33
2023-02-13T22:36:51.142Z,92.44
2023-02-13T22:40:59.595Z,92.03
2023-02-13T22:45:17.932Z,92.08
2023-02-13T22:49:23.616Z,91.33
2023-02-13T22:53:36.120Z,92.85
2023-02-13T22:58:01.885Z,93.12
2023-02-13T23:02:10.864Z,92.30
2023-02-13T23:06:21.054Z,90.37
2023-02-13T23:10:26.698Z,91.96
2023-02-13T23:14:39.272Z,92.16
2023-02-13T23:18:52.251Z,93.28
2023-02-13T23:23:07.244Z,92.07
2023-02-13T23:27:13.613Z,92.16
2023-02-13T23:31:17.558Z,91.24
2023-02-13T23:35:23.233Z,91.06
2023-02-13T23:39:30.807Z,91.75
2023-02-13T23:43:35.219Z,91.96
2023-02-13T23:47:47.637Z,90.49
2023-02-13T23:52:07.873Z,90.62
2023-02-13T23:56:11.709Z,92.22
